createdAt,value
2018-07-05T00:01:14.170Z,3.50
2018-07-05T00:03:54.472Z,3.10
2018-07-05T00:06:34.684Z,3.10
2018-07-05T00:09:15.050Z,3.40
2018-07-05T00:11:55.498Z,3.23
2018-07-05T00:14:35.876Z,3.47
2018-07-05T00:17:16.191Z,2.97
2018-07-05T00:19:56.470Z,3.37
2018-07-05T00:22:36.868Z,2.87
2018-07-05T00:25:16.982Z,2.97
2018-07-05T00:27:57.166Z,3.13
2018-07-05T00:30:37.412Z,3.53
2018-07-05T00:33:17.742Z,3.67
2018-07-05T00:35:57.998Z,2.83
2018-07-05T00:38:38.312Z,2.63
2018-07-05T00:41:18.659Z,2.80
2018-07-05T00:43:58.992Z,3.07
2018-07-05T00:46:39.198Z,2.83
2018-07-05T00:49:19.710Z,2.67
2018-07-05T00:52:00.027Z,2.73
2018-07-05T00:54:40.325Z,3.17
2018-07-05T00:57:20.654Z,3.20
2018-07-05T01:00:00.874Z,3.10
2018-07-05T01:02:41.099Z,3.30
2018-07-05T01:05:21.439Z,3.23
2018-07-05T01:08:01.741Z,2.90
2018-07-05T01:10:42.074Z,3.27
2018-07-05T01:13:22.385Z,2.77
2018-07-05T01:16:02.634Z,2.77
2018-07-05T01:18:43.042Z,3.27
2018-07-05T01:21:23.275Z,2.77
2018-07-05T01:24:03.647Z,3.50
2018-07-05T01:26:43.772Z,3.27
2018-07-05T01:29:24.073Z,2.90
2018-07-05T01:32:04.241Z,3.00
2018-07-05T01:34:44.395Z,3.10
2018-07-05T01:37:24.669Z,2.63
2018-07-05T01:40:04.891Z,3.43
2018-07-05T01:42:45.249Z,3.03
2018-07-05T01:45:25.565Z,3.00
2018-07-05T01:48:05.908Z,2.70
2018-07-05T01:50:46.205Z,3.20
2018-07-05T01:53:26.591Z,2.97
2018-07-05T01:56:06.773Z,3.10
2018-07-05T01:58:47.070Z,2.80
2018-07-05T02:01:27.397Z,3.57
2018-07-05T02:04:07.602Z,2.87
2018-07-05T02:06:47.734Z,3.63
2018-07-05T02:09:28.058Z,3.27
2018-07-05T02:12:08.336Z,3.10
2018-07-05T02:14:48.522Z,3.73
2018-07-05T02:17:28.820Z,2.93
2018-07-05T02:20:09.089Z,3.00
2018-07-05T02:22:49.160Z,3.10
2018-07-05T02:25:29.684Z,3.37
2018-07-05T02:28:09.927Z,3.53
2018-07-05T02:30:50.233Z,3.50
2018-07-05T02:33:30.539Z,3.53
2018-07-05T02:36:10.850Z,3.27
2018-07-05T02:38:56.396Z,3.80
2018-07-05T02:41:36.609Z,3.83
2018-07-05T02:44:16.819Z,3.30
2018-07-05T02:46:57.135Z,3.67
2018-07-05T02:49:37.444Z,3.97
2018-07-05T02:52:17.651Z,3.23
2018-07-05T02:54:57.759Z,3.43
2018-07-05T02:57:38.199Z,3.37
2018-07-05T03:00:18.596Z,3.43
2018-07-05T03:02:59.109Z,3.30
2018-07-05T03:05:40.273Z,3.17
2018-07-05T03:08:21.099Z,3.73
2018-07-05T03:11:01.969Z,2.90
2018-07-05T03:13:42.901Z,3.27
2018-07-05T03:16:23.397Z,3.33
2018-07-05T03:19:04.854Z,3.20
2018-07-05T03:21:45.816Z,2.90
2018-07-05T03:24:26.737Z,3.60
2018-07-05T03:27:07.566Z,3.17
2018-07-05T03:29:48.471Z,2.97
2018-07-05T03:32:30.639Z,3.10
2018-07-05T03:35:11.887Z,3.90
2018-07-05T03:37:53.186Z,3.47
2018-07-05T03:40:33.851Z,3.10
2018-07-05T03:43:14.405Z,3.80
2018-07-05T03:45:54.987Z,4.00
2018-07-05T03:48:35.850Z,3.30
2018-07-05T03:51:17.261Z,3.43
2018-07-05T03:53:58.385Z,3.47
2018-07-05T03:56:39.787Z,3.40
2018-07-05T03:59:20.635Z,3.90
2018-07-05T04:02:02.062Z,3.57
2018-07-05T04:04:42.877Z,3.47
2018-07-05T04:07:23.537Z,3.80
2018-07-05T04:10:05.718Z,3.77
2018-07-05T04:12:47.166Z,3.50
2018-07-05T04:15:28.362Z,3.60
2018-07-05T04:18:09.177Z,4.50
2018-07-05T04:20:49.790Z,4.17
2018-07-05T04:23:30.961Z,4.20
2018-07-05T04:26:12.346Z,4.00
2018-07-05T04:28:53.649Z,4.27
2018-07-05T04:31:34.674Z,4.70
2018-07-05T04:34:15.817Z,4.60
2018-07-05T04:36:56.645Z,4.53
2018-07-05T04:39:37.049Z,4.20
2018-07-05T04:42:17.505Z,4.23
2018-07-05T04:44:58.507Z,4.90
2018-07-05T04:47:39.661Z,4.40
2018-07-05T04:50:21.821Z,4.77
2018-07-05T04:53:02.389Z,4.97
2018-07-05T04:55:43.265Z,4.50
2018-07-05T04:58:24.554Z,4.30
2018-07-05T05:01:05.821Z,5.30
2018-07-05T05:03:46.539Z,3.97
2018-07-05T05:06:27.371Z,5.07
2018-07-05T05:09:08.431Z,5.37
2018-07-05T05:11:49.231Z,5.97
2018-07-05T05:14:29.567Z,5.27
2018-07-05T05:17:10.123Z,5.40
2018-07-05T05:19:50.987Z,5.17
2018-07-05T05:22:31.961Z,5.80
2018-07-05T05:25:12.530Z,5.30
2018-07-05T05:27:53.203Z,5.30
2018-07-05T05:30:34.199Z,5.83
2018-07-05T05:33:14.493Z,6.33
2018-07-05T05:35:55.406Z,6.37
2018-07-05T05:38:36.033Z,5.23
2018-07-05T05:41:16.703Z,6.30
2018-07-05T05:43:57.495Z,6.37
2018-07-05T05:46:38.205Z,5.63
2018-07-05T05:49:19.633Z,5.50
2018-07-05T05:52:00.643Z,5.17
2018-07-05T05:54:41.137Z,5.57
2018-07-05T05:57:21.852Z,4.93
2018-07-05T06:00:02.148Z,5.67
2018-07-05T06:02:42.778Z,5.47
2018-07-05T06:05:23.409Z,4.50
2018-07-05T06:08:04.534Z,4.50
2018-07-05T06:10:45.291Z,4.70
2018-07-05T06:13:25.983Z,3.90
2018-07-05T06:16:06.993Z,4.17
2018-07-05T06:18:48.179Z,3.63
2018-07-05T06:21:29.465Z,3.80
2018-07-05T06:24:10.160Z,3.43
2018-07-05T06:26:50.826Z,3.73
2018-07-05T06:29:31.386Z,3.67
2018-07-05T06:32:12.271Z,3.20
2018-07-05T06:34:53.408Z,3.30
2018-07-05T06:37:34.290Z,3.30
2018-07-05T06:40:15.100Z,3.07
2018-07-05T06:42:55.824Z,3.43
2018-07-05T06:45:37.114Z,2.73
2018-07-05T06:48:17.936Z,2.80
2018-07-05T06:50:58.708Z,2.77
2018-07-05T06:53:39.632Z,2.67
2018-07-05T06:56:19.990Z,2.90
2018-07-05T06:59:00.692Z,3.00
2018-07-05T07:01:41.924Z,2.80
2018-07-05T07:04:22.957Z,2.23
2018-07-05T07:07:03.963Z,2.90
2018-07-05T07:09:44.504Z,2.37
2018-07-05T07:12:25.410Z,2.40
2018-07-05T07:15:06.071Z,2.80
2018-07-05T07:17:46.696Z,2.00
2018-07-05T07:20:27.207Z,2.27
2018-07-05T07:23:08.107Z,2.33
2018-07-05T07:25:48.698Z,2.23
2018-07-05T07:28:29.616Z,2.83
2018-07-05T07:31:10.634Z,1.93
2018-07-05T07:33:51.490Z,2.40
2018-07-05T07:36:32.010Z,2.50
2018-07-05T07:39:12.595Z,2.37
2018-07-05T07:41:46.748Z,2.43
2018-07-05T07:44:15.714Z,2.80
2018-07-05T07:46:44.663Z,1.70
2018-07-05T07:49:12.997Z,1.70
2018-07-05T07:51:41.504Z,1.60
2018-07-05T07:54:09.738Z,2.40
2018-07-05T07:56:38.112Z,1.83
2018-07-05T07:59:06.786Z,1.80
2018-07-05T08:01:35.288Z,2.17
2018-07-05T08:04:03.542Z,2.07
2018-07-05T08:06:31.942Z,1.90
2018-07-05T08:09:00.203Z,2.03
2018-07-05T08:11:28.356Z,2.40
2018-07-05T08:13:56.725Z,2.10
2018-07-05T08:16:24.928Z,1.93
2018-07-05T08:18:53.314Z,2.00
2018-07-05T08:21:21.766Z,1.90
2018-07-05T08:23:50.009Z,1.97
2018-07-05T08:26:18.316Z,2.20
2018-07-05T08:28:47.222Z,2.00
2018-07-05T08:31:15.793Z,1.80
2018-07-05T08:33:44.286Z,2.00
2018-07-05T08:36:12.508Z,1.90
2018-07-05T08:38:40.755Z,1.93
2018-07-05T08:41:09.718Z,2.37
2018-07-05T08:43:38.280Z,1.97
2018-07-05T08:46:07.213Z,2.00
2018-07-05T08:48:35.505Z,1.93
2018-07-05T08:51:04.117Z,2.27
2018-07-05T08:53:32.415Z,2.63
2018-07-05T08:56:00.760Z,2.50
2018-07-05T08:58:29.426Z,2.00
2018-07-05T09:00:58.190Z,2.60
2018-07-05T09:03:26.791Z,2.20
2018-07-05T09:05:54.871Z,2.60
2018-07-05T09:08:23.380Z,2.67
2018-07-05T09:10:51.606Z,3.00
2018-07-05T09:13:19.858Z,2.33
2018-07-05T09:15:48.223Z,2.60
2018-07-05T09:18:16.818Z,2.83
2018-07-05T09:20:45.349Z,3.40
2018-07-05T09:23:13.777Z,3.50
2018-07-05T09:25:42.187Z,3.20
2018-07-05T09:28:10.501Z,3.03
2018-07-05T09:30:39.096Z,3.70
2018-07-05T09:33:07.264Z,3.40
2018-07-05T09:35:35.570Z,3.63
2018-07-05T09:38:03.895Z,3.97
2018-07-05T09:40:32.332Z,3.90
2018-07-05T09:43:00.755Z,3.70
2018-07-05T09:45:29.114Z,4.10
2018-07-05T09:47:57.426Z,2.83
2018-07-05T09:50:25.778Z,3.63
2018-07-05T09:52:54.121Z,3.97
2018-07-05T09:55:22.382Z,3.40
2018-07-05T09:57:50.750Z,3.40
2018-07-05T10:00:23.345Z,2.80
2018-07-05T10:02:51.817Z,3.87
2018-07-05T10:05:19.946Z,2.83
2018-07-05T10:07:48.190Z,3.53
2018-07-05T10:10:16.963Z,3.05
2018-07-05T10:12:45.460Z,2.52
2018-07-05T10:15:13.774Z,3.07
2018-07-05T10:17:42.021Z,4.15
2018-07-05T10:20:10.208Z,3.43
2018-07-05T10:22:38.578Z,3.52
2018-07-05T10:25:06.824Z,4.10
2018-07-05T10:27:35.024Z,3.37
2018-07-05T10:30:15.694Z,3.70
2018-07-05T10:32:56.546Z,3.92
2018-07-05T10:35:24.752Z,4.33
2018-07-05T10:37:57.242Z,4.40
2018-07-05T10:40:38.899Z,3.87
2018-07-05T10:43:19.667Z,3.42
2018-07-05T10:46:00.990Z,3.75
2018-07-05T10:48:41.805Z,3.47
2018-07-05T10:51:22.993Z,3.33
2018-07-05T10:54:03.520Z,3.55
2018-07-05T10:56:44.035Z,3.50
2018-07-05T10:59:25.922Z,3.72
2018-07-05T11:02:06.704Z,3.25
2018-07-05T11:04:47.610Z,3.67
2018-07-05T11:07:28.318Z,3.63
2018-07-05T11:10:09.340Z,3.35
2018-07-05T11:12:49.723Z,2.92
2018-07-05T11:15:30.630Z,3.98
2018-07-05T11:18:11.297Z,3.45
2018-07-05T11:20:51.953Z,2.30
2018-07-05T11:23:32.892Z,3.77
2018-07-05T11:26:13.599Z,3.65
2018-07-05T11:28:54.487Z,3.92
2018-07-05T11:31:34.969Z,2.90
2018-07-05T11:34:15.819Z,3.30
2018-07-05T11:36:56.467Z,3.40
2018-07-05T11:39:37.211Z,2.72
2018-07-05T11:42:17.926Z,3.23
2018-07-05T11:44:58.395Z,2.63
2018-07-05T11:47:39.169Z,3.33
2018-07-05T11:50:19.717Z,3.40
2018-07-05T11:53:00.983Z,3.33
2018-07-05T11:55:41.809Z,3.17
2018-07-05T11:58:22.306Z,3.25
2018-07-05T12:01:02.869Z,3.05
2018-07-05T12:03:43.587Z,3.47
2018-07-05T12:06:24.305Z,2.50
2018-07-05T12:09:05.968Z,3.23
2018-07-05T12:11:46.671Z,2.70
2018-07-05T12:14:27.041Z,3.20
2018-07-05T12:17:07.405Z,3.50
2018-07-05T12:19:48.259Z,3.05
2018-07-05T12:22:29.050Z,3.35
2018-07-05T12:25:09.739Z,2.70
2018-07-05T12:27:50.379Z,3.33
2018-07-05T12:30:30.933Z,2.80
2018-07-05T12:33:12.361Z,2.47
2018-07-05T12:35:53.174Z,2.40
2018-07-05T12:38:33.938Z,2.40
2018-07-05T12:41:14.841Z,2.50
2018-07-05T12:43:55.289Z,2.67
2018-07-05T12:46:35.709Z,2.87
2018-07-05T12:49:16.473Z,2.25
2018-07-05T12:51:57.280Z,2.60
2018-07-05T12:54:38.543Z,3.00
2018-07-05T12:57:19.171Z,2.80
2018-07-05T12:59:59.735Z,2.98
2018-07-05T13:02:40.775Z,3.52
2018-07-05T13:05:21.525Z,2.77
2018-07-05T13:08:02.227Z,3.35
2018-07-05T13:10:42.913Z,2.70
2018-07-05T13:13:23.498Z,2.85
2018-07-05T13:16:04.758Z,3.20
2018-07-05T13:18:45.651Z,3.00
2018-07-05T13:21:26.133Z,2.70
2018-07-05T13:24:06.881Z,2.73
2018-07-05T13:26:47.830Z,2.50
2018-07-05T13:29:28.403Z,2.90
2018-07-05T13:32:09.268Z,2.50
2018-07-05T13:34:50.035Z,3.40
2018-07-05T13:37:30.967Z,3.00
2018-07-05T13:40:11.715Z,3.03
2018-07-05T13:42:52.757Z,3.30
2018-07-05T13:45:33.431Z,3.00
2018-07-05T13:48:14.966Z,2.80
2018-07-05T13:50:56.046Z,3.20
2018-07-05T13:53:36.904Z,3.17
2018-07-05T13:56:17.380Z,3.20
2018-07-05T13:58:59.835Z,2.63
2018-07-05T14:01:40.676Z,2.90
2018-07-05T14:04:21.346Z,2.93
2018-07-05T14:07:01.857Z,2.90
2018-07-05T14:09:42.467Z,2.57
2018-07-05T14:12:23.423Z,2.50
2018-07-05T14:15:04.080Z,2.63
2018-07-05T14:17:44.757Z,3.00
2018-07-05T14:20:25.473Z,2.80
2018-07-05T14:23:06.122Z,2.90
2018-07-05T14:25:48.126Z,3.10
2018-07-05T14:28:28.968Z,2.83
2018-07-05T14:31:09.938Z,3.00
2018-07-05T14:33:50.824Z,2.73
2018-07-05T14:36:31.235Z,2.93
2018-07-05T14:39:11.687Z,2.50
2018-07-05T14:41:52.504Z,3.17
2018-07-05T14:44:33.210Z,2.47
2018-07-05T14:47:14.199Z,2.83
2018-07-05T14:49:54.765Z,2.72
2018-07-05T14:52:35.788Z,2.40
2018-07-05T14:55:16.474Z,2.70
2018-07-05T14:57:57.034Z,2.43
2018-07-05T15:00:37.546Z,2.40
2018-07-05T15:03:18.454Z,2.77
2018-07-05T15:05:59.204Z,2.40
2018-07-05T15:08:39.850Z,2.70
2018-07-05T15:11:20.776Z,2.50
2018-07-05T15:14:01.793Z,2.40
2018-07-05T15:16:42.348Z,2.53
2018-07-05T15:19:23.096Z,2.53
2018-07-05T15:22:03.806Z,2.20
2018-07-05T15:24:44.760Z,2.23
2018-07-05T15:27:25.362Z,2.17
2018-07-05T15:30:06.076Z,2.83
2018-07-05T15:32:46.795Z,2.47
2018-07-05T15:35:27.631Z,2.90
2018-07-05T15:38:09.635Z,2.73
2018-07-05T15:40:50.254Z,2.50
2018-07-05T15:43:31.004Z,2.43
2018-07-05T15:46:11.996Z,1.87
2018-07-05T15:48:52.460Z,2.10
2018-07-05T15:51:33.254Z,2.37
2018-07-05T15:54:13.922Z,2.40
2018-07-05T15:56:54.920Z,2.57
2018-07-05T15:59:36.425Z,2.77
2018-07-05T16:02:16.837Z,2.20
2018-07-05T16:04:57.366Z,2.33
2018-07-05T16:07:37.999Z,2.40
2018-07-05T16:10:18.715Z,2.03
2018-07-05T16:12:59.512Z,2.10
2018-07-05T16:15:40.138Z,2.10
2018-07-05T16:18:20.894Z,2.13
2018-07-05T16:21:01.739Z,2.17
2018-07-05T16:23:42.499Z,2.37
2018-07-05T16:26:23.687Z,2.10
2018-07-05T16:29:04.558Z,2.13
2018-07-05T16:31:46.117Z,2.40
2018-07-05T16:34:27.444Z,2.33
2018-07-05T16:37:08.526Z,2.40
2018-07-05T16:39:49.261Z,2.37
2018-07-05T16:42:29.868Z,2.53
2018-07-05T16:45:10.798Z,2.23
2018-07-05T16:47:52.938Z,2.30
2018-07-05T16:50:34.317Z,2.60
2018-07-05T16:53:15.291Z,2.30
2018-07-05T16:55:56.152Z,2.37
2018-07-05T16:58:37.562Z,2.50
2018-07-05T17:01:18.482Z,2.33
2018-07-05T17:03:59.734Z,2.03
2018-07-05T17:06:40.538Z,2.73
2018-07-05T17:09:21.294Z,2.40
2018-07-05T17:12:02.415Z,2.30
2018-07-05T17:14:43.692Z,2.50
2018-07-05T17:17:25.592Z,2.57
2018-07-05T17:20:06.458Z,3.10
2018-07-05T17:22:48.108Z,2.90
2018-07-05T17:25:28.950Z,2.80
2018-07-05T17:28:10.647Z,2.70
2018-07-05T17:30:51.799Z,2.40
2018-07-05T17:33:33.170Z,2.57
2018-07-05T17:36:14.210Z,3.10
2018-07-05T17:38:55.285Z,2.83
2018-07-05T17:41:36.500Z,3.03
2018-07-05T17:44:18.115Z,2.70
2018-07-05T17:46:58.879Z,2.40
2018-07-05T17:49:40.114Z,2.90
2018-07-05T17:52:21.218Z,3.20
2018-07-05T17:55:03.155Z,3.17
2018-07-05T17:57:44.130Z,2.97
2018-07-05T18:00:24.996Z,2.83
2018-07-05T18:03:05.788Z,2.93
2018-07-05T18:05:46.614Z,3.10
2018-07-05T18:08:27.470Z,2.90
2018-07-05T18:11:08.680Z,3.03
2018-07-05T18:13:50.584Z,3.27
2018-07-05T18:16:31.801Z,3.20
2018-07-05T18:19:12.689Z,3.07
2018-07-05T18:21:53.784Z,3.23
2018-07-05T18:24:34.912Z,3.17
2018-07-05T18:27:15.794Z,3.30
2018-07-05T18:29:56.400Z,3.43
2018-07-05T18:32:37.152Z,3.20
2018-07-05T18:35:18.168Z,3.40
2018-07-05T18:37:59.188Z,3.03
2018-07-05T18:40:40.376Z,3.17
2018-07-05T18:43:21.209Z,2.90
2018-07-05T18:46:02.486Z,3.07
2018-07-05T18:48:43.095Z,3.13
2018-07-05T18:51:23.966Z,2.80
2018-07-05T18:54:04.935Z,3.10
2018-07-05T18:56:45.992Z,2.73
2018-07-05T18:59:27.366Z,2.80
2018-07-05T19:02:08.243Z,2.67
2018-07-05T19:04:48.846Z,2.30
2018-07-05T19:07:30.015Z,2.70
2018-07-05T19:10:10.886Z,2.50
2018-07-05T19:12:52.231Z,2.77
2018-07-05T19:15:33.010Z,2.70
2018-07-05T19:18:13.646Z,2.77
2018-07-05T19:20:54.822Z,2.90
2018-07-05T19:23:35.705Z,3.13
2018-07-05T19:26:16.416Z,2.90
2018-07-05T19:28:57.884Z,2.80
2018-07-05T19:31:38.665Z,2.53
2018-07-05T19:34:19.911Z,3.33
2018-07-05T19:37:01.065Z,2.80
2018-07-05T19:39:41.851Z,2.97
2018-07-05T19:42:22.437Z,2.80
2018-07-05T19:45:03.003Z,3.13
2018-07-05T19:47:43.589Z,2.87
2018-07-05T19:50:24.141Z,3.23
2018-07-05T19:53:04.805Z,3.07
2018-07-05T19:55:44.991Z,2.73
2018-07-05T19:58:25.538Z,2.87
2018-07-05T20:01:05.548Z,3.10
2018-07-05T20:03:46.123Z,2.90
2018-07-05T20:06:26.339Z,3.10
2018-07-05T20:09:07.147Z,2.70
2018-07-05T20:11:53.033Z,3.00
2018-07-05T20:14:33.275Z,3.10
2018-07-05T20:17:13.685Z,3.07
2018-07-05T20:19:53.847Z,3.00
2018-07-05T20:22:34.180Z,3.13
2018-07-05T20:25:14.810Z,3.10
2018-07-05T20:27:55.233Z,3.03
2018-07-05T20:30:35.659Z,2.77
2018-07-05T20:33:15.933Z,2.63
2018-07-05T20:35:56.776Z,2.57
2018-07-05T20:38:37.093Z,2.93
2018-07-05T20:41:18.137Z,3.07
2018-07-05T20:43:58.223Z,2.63
2018-07-05T20:46:38.675Z,2.90
2018-07-05T20:49:19.086Z,3.20
2018-07-05T20:51:59.459Z,2.77
2018-07-05T20:54:39.629Z,2.80
2018-07-05T20:57:19.891Z,3.10
2018-07-05T21:00:00.094Z,3.00
2018-07-05T21:02:40.585Z,3.07
2018-07-05T21:05:20.916Z,2.70
2018-07-05T21:08:01.116Z,2.90
2018-07-05T21:10:41.348Z,3.10
2018-07-05T21:13:21.707Z,2.70
2018-07-05T21:16:01.900Z,2.63
2018-07-05T21:18:42.110Z,2.80
2018-07-05T21:21:22.364Z,2.53
2018-07-05T21:24:02.526Z,2.67
2018-07-05T21:26:42.762Z,2.37
2018-07-05T21:29:23.444Z,2.93
2018-07-05T21:32:03.888Z,2.23
2018-07-05T21:34:44.054Z,2.47
2018-07-05T21:37:24.450Z,2.60
2018-07-05T21:40:04.992Z,2.70
2018-07-05T21:42:45.160Z,2.60
2018-07-05T21:45:25.472Z,2.23
2018-07-05T21:48:05.905Z,2.00
2018-07-05T21:50:46.114Z,2.10
2018-07-05T21:53:26.267Z,2.10
2018-07-05T21:56:06.625Z,1.80
2018-07-05T21:58:46.779Z,2.10
2018-07-05T22:01:27.134Z,2.30
2018-07-05T22:04:07.345Z,2.20
2018-07-05T22:06:47.667Z,2.00
2018-07-05T22:09:28.097Z,2.00
2018-07-05T22:12:08.279Z,2.03
2018-07-05T22:14:48.549Z,1.80
2018-07-05T22:17:34.193Z,1.93
2018-07-05T22:20:19.843Z,2.17
2018-07-05T22:23:05.585Z,2.10
2018-07-05T22:25:51.263Z,2.30
2018-07-05T22:30:38.243Z,2.17
2018-07-05T22:33:18.578Z,2.03
2018-07-05T22:35:58.919Z,2.10
2018-07-05T22:38:39.195Z,2.10
2018-07-05T22:41:19.383Z,2.57
2018-07-05T22:43:59.673Z,2.43
2018-07-05T22:46:39.889Z,2.70
2018-07-05T22:49:20.145Z,2.57
2018-07-05T22:52:00.431Z,2.93
2018-07-05T22:54:40.769Z,3.93
2018-07-05T22:57:21.089Z,3.87
2018-07-05T23:00:01.431Z,3.63
2018-07-05T23:02:41.789Z,4.37
2018-07-05T23:05:21.965Z,4.43
2018-07-05T23:08:02.207Z,4.20
2018-07-05T23:10:42.445Z,4.30
2018-07-05T23:13:22.720Z,4.07
2018-07-05T23:16:03.104Z,3.60
2018-07-05T23:18:43.434Z,4.30
2018-07-05T23:21:23.649Z,4.53
2018-07-05T23:24:03.897Z,4.13
2018-07-05T23:26:44.182Z,4.13
2018-07-05T23:29:24.321Z,3.90
2018-07-05T23:32:04.568Z,3.90
2018-07-05T23:34:44.831Z,4.50
2018-07-05T23:37:25.332Z,5.03
2018-07-05T23:40:05.619Z,5.37
2018-07-05T23:42:45.884Z,5.27
2018-07-05T23:45:26.148Z,4.63
2018-07-05T23:48:06.709Z,4.30
2018-07-05T23:50:46.815Z,5.13
2018-07-05T23:53:27.470Z,4.77
2018-07-05T23:56:07.649Z,4.30
2018-07-05T23:58:47.823Z,5.10
